Time;durP1;ratioP1;P1;durP2;ratioP2;P2;SDS_P1;SDS_P2;PMS_P1;PMS_P2;Temp;Humidity;BMP_temperature;BMP_pressure;BME280_temperature;BME280_humidity;BME280_pressure;Samples;Min_cycle;Max_cycle;Signal;HPM_P1;HPM_P2
2021/12/26 00:00:50;;;;;;;4.28;3.92;;;5.60;99.90;;;;;;5036539;28;20254;-65
2021/12/26 00:03:21;;;;;;;3.58;3.38;;;5.60;99.90;;;;;;5033566;28;20214;-66
2021/12/26 00:05:50;;;;;;;4.82;3.83;;;5.50;99.90;;;;;;5049154;28;20277;-66
2021/12/26 00:08:20;;;;;;;4.05;3.65;;;5.60;99.90;;;;;;5049098;28;20200;-67
2021/12/26 00:10:48;;;;;;;3.83;3.20;;;5.60;99.90;;;;;;5048817;28;20710;-66
2021/12/26 00:13:18;;;;;;;4.20;3.80;;;5.60;99.90;;;;;;5049241;28;20318;-67
2021/12/26 00:15:46;;;;;;;4.55;3.72;;;5.60;99.90;;;;;;5035952;28;20221;-67
2021/12/26 00:18:15;;;;;;;3.95;3.60;;;5.60;99.90;;;;;;5041044;28;20351;-68
2021/12/26 00:20:44;;;;;;;5.60;4.32;;;5.60;99.90;;;;;;5049670;28;20231;-67
2021/12/26 00:23:14;;;;;;;4.38;3.97;;;5.60;99.90;;;;;;5051089;28;20212;-66
2021/12/26 00:25:44;;;;;;;4.45;4.05;;;5.50;99.90;;;;;;5036166;28;20236;-66
2021/12/26 00:28:13;;;;;;;3.90;3.60;;;5.60;99.90;;;;;;5045900;28;20208;-67
2021/12/26 00:30:43;;;;;;;3.72;3.42;;;5.50;99.90;;;;;;5048322;28;20220;-66
2021/12/26 00:33:11;;;;;;;3.90;3.60;;;5.50;99.90;;;;;;5047483;28;20216;-66
2021/12/26 00:35:39;;;;;;;3.60;3.30;;;5.50;99.90;;;;;;5048292;28;20298;-69
2021/12/26 00:38:07;;;;;;;5.43;3.78;;;5.60;99.90;;;;;;5049208;28;20215;-68
2021/12/26 00:40:35;;;;;;;3.85;3.55;;;5.60;99.90;;;;;;5056994;28;20259;-67
2021/12/26 00:43:05;;;;;;;3.70;3.40;;;5.50;99.90;;;;;;5049144;28;20265;-66
2021/12/26 00:45:33;;;;;;;3.42;3.20;;;5.60;99.90;;;;;;5034072;28;20266;-67
2021/12/26 00:48:02;;;;;;;4.25;3.85;;;5.50;99.90;;;;;;5028759;28;20717;-66
2021/12/26 00:50:33;;;;;;;3.00;2.75;;;5.50;99.90;;;;;;5041988;28;20220;-66
2021/12/26 00:53:02;;;;;;;4.82;3.83;;;5.60;99.90;;;;;;5064330;28;20586;-66
2021/12/26 00:55:30;;;;;;;4.40;3.65;;;5.50;99.90;;;;;;5042468;28;20641;-68
2021/12/26 00:57:59;;;;;;;4.30;3.90;;;5.50;99.90;;;;;;5049078;28;20200;-67
2021/12/26 01:00:31;;;;;;;4.70;4.30;;;5.50;99.90;;;;;;5052987;28;20677;-66
2021/12/26 01:03:03;;;;;;;3.83;3.30;;;5.50;99.90;;;;;;5027419;28;20213;-66
2021/12/26 01:05:34;;;;;;;4.40;3.92;;;5.50;99.90;;;;;;5031161;28;20231;-66
2021/12/26 01:08:05;;;;;;;4.25;3.88;;;5.50;99.90;;;;;;5027872;28;20224;-68
2021/12/26 01:10:39;;;;;;;4.07;3.65;;;5.50;99.90;;;;;;5051740;28;20241;-68
2021/12/26 01:13:15;;;;;;;4.65;3.80;;;5.50;99.90;;;;;;5028955;28;20259;-68
2021/12/26 01:15:47;;;;;;;4.60;4.20;;;5.50;99.90;;;;;;5034227;28;20247;-67
2021/12/26 01:18:23;;;;;;;4.78;4.30;;;5.50;99.90;;;;;;5028980;28;20196;-68
2021/12/26 01:20:59;;;;;;;4.90;3.92;;;5.50;99.90;;;;;;5047908;28;20311;-68
2021/12/26 01:23:30;;;;;;;4.65;4.25;;;5.50;99.90;;;;;;5046315;28;20219;-66
2021/12/26 01:25:59;;;;;;;4.88;4.47;;;5.50;99.90;;;;;;5027655;28;20217;-67
2021/12/26 01:28:30;;;;;;;5.80;5.28;;;5.50;99.90;;;;;;5043445;28;20212;-68
2021/12/26 01:31:03;;;;;;;5.10;4.60;;;5.50;99.90;;;;;;5041729;28;20315;-66
2021/12/26 01:33:36;;;;;;;5.15;4.65;;;5.50;99.90;;;;;;5043578;28;20228;-66
2021/12/26 01:36:35;;;;;;;5.65;5.03;;;5.40;99.90;;;;;;5043021;28;20252;-69
2021/12/26 01:39:21;;;;;;;6.05;4.97;;;5.40;99.90;;;;;;5035919;28;20671;-69
2021/12/26 01:42:02;;;;;;;4.93;4.43;;;5.40;99.90;;;;;;5026295;28;20274;-66
2021/12/26 01:44:58;;;;;;;4.45;4.05;;;5.40;99.90;;;;;;5028837;28;20192;-67
2021/12/26 01:47:33;;;;;;;6.20;4.68;;;5.40;99.90;;;;;;5046777;28;20196;-67
2021/12/26 01:50:01;;;;;;;4.60;4.20;;;5.40;99.90;;;;;;5047451;28;20297;-66
2021/12/26 01:52:30;;;;;;;5.68;5.07;;;5.40;99.90;;;;;;5042852;28;20262;-67
2021/12/26 01:55:20;;;;;;;4.60;4.20;;;5.40;99.90;;;;;;5045860;28;20252;-67
2021/12/26 01:57:50;;;;;;;4.72;4.32;;;5.40;99.90;;;;;;5027128;28;20197;-69
2021/12/26 02:00:19;;;;;;;4.75;4.05;;;5.40;99.90;;;;;;5049792;28;20227;-68
2021/12/26 02:02:49;;;;;;;4.95;4.30;;;5.40;99.90;;;;;;5026531;28;20193;-66
2021/12/26 02:05:20;;;;;;;5.18;4.55;;;5.40;99.90;;;;;;5055212;28;20225;-67
2021/12/26 02:07:49;;;;;;;5.15;4.75;;;5.40;99.90;;;;;;5057759;28;20559;-67
2021/12/26 02:10:17;;;;;;;5.18;4.65;;;5.40;99.90;;;;;;5062698;28;20231;-68
2021/12/26 02:12:46;;;;;;;5.47;4.97;;;5.40;99.90;;;;;;5050493;28;20270;-66
2021/12/26 02:15:14;;;;;;;5.75;4.78;;;5.40;99.90;;;;;;5041382;28;20698;-66
2021/12/26 02:17:58;;;;;;;5.70;5.18;;;5.40;99.90;;;;;;5054555;28;20697;-66
2021/12/26 02:20:37;;;;;;;5.28;4.78;;;5.40;99.90;;;;;;5066479;28;20220;-67
2021/12/26 02:23:12;;;;;;;5.32;4.82;;;5.40;99.90;;;;;;5066778;28;20233;-66
2021/12/26 02:28:28;;;;;;;6.13;5.53;;;5.40;99.90;;;;;;5050180;28;20219;-66
2021/12/26 02:30:58;;;;;;;6.20;5.57;;;5.40;99.90;;;;;;5042341;28;20208;-68
2021/12/26 02:33:26;;;;;;;5.60;5.10;;;5.40;99.90;;;;;;5067243;28;20265;-68
2021/12/26 02:35:56;;;;;;;4.78;4.28;;;5.30;99.90;;;;;;5062645;28;20232;-67
2021/12/26 02:38:25;;;;;;;5.60;5.00;;;5.30;99.90;;;;;;5046141;28;20296;-68
2021/12/26 02:40:55;;;;;;;5.10;4.70;;;5.30;99.90;;;;;;5042307;28;20303;-69
2021/12/26 02:43:26;;;;;;;5.55;5.03;;;5.40;99.90;;;;;;5066628;28;20236;-65
2021/12/26 02:45:54;;;;;;;6.97;5.43;;;5.30;99.90;;;;;;5049847;28;20254;-66
2021/12/26 02:48:23;;;;;;;5.50;4.70;;;5.30;99.90;;;;;;5066485;28;20208;-68
2021/12/26 02:50:56;;;;;;;6.28;5.32;;;5.30;99.90;;;;;;5049044;28;20719;-68
2021/12/26 02:53:28;;;;;;;4.88;4.38;;;5.30;99.90;;;;;;5053919;28;20238;-67
2021/12/26 02:55:58;;;;;;;6.10;5.45;;;5.30;99.90;;;;;;5064150;28;20223;-66
2021/12/26 02:58:27;;;;;;;6.30;5.22;;;5.30;99.90;;;;;;5049744;28;20200;-67
2021/12/26 03:00:58;;;;;;;6.25;5.65;;;5.30;99.90;;;;;;5060260;28;20228;-67
2021/12/26 03:03:26;;;;;;;6.88;5.35;;;5.30;99.90;;;;;;5065537;28;20242;-66
2021/12/26 03:05:57;;;;;;;5.00;4.60;;;5.30;99.90;;;;;;5061945;28;20657;-67
2021/12/26 03:08:26;;;;;;;5.45;4.90;;;5.30;99.90;;;;;;5041418;28;20200;-69
2021/12/26 03:10:55;;;;;;;6.75;5.70;;;5.40;99.90;;;;;;5051542;28;20286;-68
2021/12/26 03:13:24;;;;;;;6.72;5.75;;;5.40;99.90;;;;;;5053877;28;20229;-67
2021/12/26 03:15:52;;;;;;;5.00;4.50;;;5.40;99.90;;;;;;5029032;28;20677;-66
2021/12/26 03:18:20;;;;;;;5.05;4.55;;;5.40;99.90;;;;;;5056223;28;20612;-67
2021/12/26 03:20:50;;;;;;;6.20;5.60;;;5.30;99.90;;;;;;5048802;28;20323;-68
2021/12/26 03:23:21;;;;;;;6.28;5.68;;;5.40;99.90;;;;;;5044086;28;20213;-66
2021/12/26 03:25:55;;;;;;;4.55;4.15;;;5.30;99.90;;;;;;5030125;28;20239;-67
2021/12/26 03:28:24;;;;;;;5.00;4.15;;;5.40;99.90;;;;;;5050843;28;20207;-67
2021/12/26 03:30:53;;;;;;;5.95;5.35;;;5.40;99.90;;;;;;5051448;28;20315;-67
2021/12/26 03:33:22;;;;;;;6.07;5.10;;;5.40;99.90;;;;;;5060188;28;20753;-66
2021/12/26 03:35:53;;;;;;;4.68;4.28;;;5.30;99.90;;;;;;5028408;28;20789;-66
2021/12/26 03:38:23;;;;;;;6.78;4.95;;;5.30;99.90;;;;;;5033383;28;20219;-66
2021/12/26 03:40:54;;;;;;;5.10;4.60;;;5.30;99.90;;;;;;5049322;28;20741;-68
2021/12/26 03:43:24;;;;;;;6.38;5.70;;;5.30;99.90;;;;;;5065692;28;20208;-66
2021/12/26 03:45:54;;;;;;;6.18;5.57;;;5.30;99.90;;;;;;5040889;28;20220;-66
2021/12/26 03:48:24;;;;;;;4.90;4.38;;;5.30;99.90;;;;;;5048628;28;20201;-68
2021/12/26 03:50:54;;;;;;;6.97;5.93;;;5.30;99.90;;;;;;5028230;28;20239;-68
2021/12/26 03:53:22;;;;;;;6.00;5.40;;;5.30;99.90;;;;;;5029452;28;20216;-67
2021/12/26 03:55:52;;;;;;;5.53;4.65;;;5.30;99.90;;;;;;5047987;28;20652;-66
2021/12/26 03:58:20;;;;;;;5.40;4.90;;;5.30;99.90;;;;;;5048445;28;20678;-69
2021/12/26 04:00:50;;;;;;;5.28;4.72;;;5.30;99.90;;;;;;5047291;28;20216;-66
2021/12/26 04:03:23;;;;;;;5.13;4.72;;;5.30;99.90;;;;;;5047645;28;20230;-67
2021/12/26 04:06:00;;;;;;;5.68;4.95;;;5.30;99.90;;;;;;5036398;28;20228;-66
2021/12/26 04:08:35;;;;;;;5.93;5.25;;;5.30;99.90;;;;;;5047048;28;20189;-67
2021/12/26 04:11:05;;;;;;;6.75;6.05;;;5.30;99.90;;;;;;5029359;28;20487;-67
2021/12/26 04:13:35;;;;;;;5.40;4.88;;;5.30;99.90;;;;;;5048936;28;20964;-67
2021/12/26 04:16:04;;;;;;;6.95;6.25;;;5.30;99.90;;;;;;5048597;28;20249;-67
2021/12/26 04:18:33;;;;;;;5.72;4.82;;;5.30;99.90;;;;;;5047016;28;20605;-67
2021/12/26 04:21:02;;;;;;;7.32;5.72;;;5.30;99.90;;;;;;5064525;28;20213;-67
2021/12/26 04:23:35;;;;;;;6.60;5.25;;;5.30;99.90;;;;;;5059986;28;20262;-67
2021/12/26 04:26:04;;;;;;;5.10;4.53;;;5.30;99.90;;;;;;5044130;28;20224;-66
2021/12/26 04:28:33;;;;;;;7.07;5.40;;;5.30;99.90;;;;;;5058853;28;20656;-67
2021/12/26 04:31:01;;;;;;;5.10;4.60;;;5.30;99.90;;;;;;5035336;28;20586;-66
2021/12/26 04:33:29;;;;;;;7.68;6.05;;;5.30;99.90;;;;;;5063993;28;20213;-66
2021/12/26 04:35:57;;;;;;;6.00;5.43;;;5.30;99.90;;;;;;5063682;28;20944;-67
2021/12/26 04:38:25;;;;;;;5.35;4.70;;;5.30;99.90;;;;;;5049128;28;20197;-66
2021/12/26 04:40:53;;;;;;;6.57;5.45;;;5.30;99.90;;;;;;5044633;28;20223;-67
2021/12/26 04:43:41;;;;;;;8.75;6.30;;;5.30;99.90;;;;;;5029141;28;21009;-66
2021/12/26 04:46:19;;;;;;;6.40;5.50;;;5.20;99.90;;;;;;5027801;28;20739;-66
2021/12/26 04:48:55;;;;;;;6.05;5.47;;;5.20;99.90;;;;;;5028575;28;20255;-67
2021/12/26 04:51:23;;;;;;;7.10;5.93;;;5.20;99.90;;;;;;5027172;28;20233;-69
2021/12/26 04:53:59;;;;;;;7.15;5.35;;;5.20;99.90;;;;;;5033431;28;20762;-66
2021/12/26 04:56:27;;;;;;;5.40;4.85;;;5.20;99.90;;;;;;5043737;28;20239;-68
2021/12/26 04:58:56;;;;;;;5.38;4.88;;;5.20;99.90;;;;;;5046169;28;20394;-70
2021/12/26 05:01:24;;;;;;;5.55;4.15;;;5.20;99.90;;;;;;5043787;28;20273;-66
2021/12/26 05:03:53;;;;;;;5.78;5.18;;;5.20;99.90;;;;;;5048472;28;20648;-67
2021/12/26 05:06:24;;;;;;;7.45;6.07;;;5.30;99.90;;;;;;5048223;28;20223;-67
2021/12/26 05:08:52;;;;;;;5.38;4.85;;;5.30;99.90;;;;;;5043284;28;20209;-67
2021/12/26 05:11:20;;;;;;;5.78;5.18;;;5.30;99.90;;;;;;5028745;28;20248;-67
2021/12/26 05:13:48;;;;;;;5.35;4.85;;;5.30;99.90;;;;;;5041290;28;20266;-68
2021/12/26 05:16:18;;;;;;;5.22;4.60;;;5.30;99.90;;;;;;5047525;28;20221;-68
2021/12/26 05:18:46;;;;;;;6.25;5.07;;;5.30;99.90;;;;;;5063969;28;20192;-67
2021/12/26 05:21:14;;;;;;;5.97;5.38;;;5.30;99.90;;;;;;5063105;28;20223;-68
2021/12/26 05:23:43;;;;;;;6.28;5.50;;;5.30;99.90;;;;;;5027356;28;20225;-66
2021/12/26 05:26:11;;;;;;;5.63;4.85;;;5.30;99.90;;;;;;5042967;28;20229;-67
2021/12/26 05:28:40;;;;;;;6.78;5.15;;;5.20;99.90;;;;;;5046504;28;20224;-67
2021/12/26 05:31:09;;;;;;;5.38;4.88;;;5.20;99.90;;;;;;5047336;28;20259;-68
2021/12/26 05:33:43;;;;;;;5.15;4.55;;;5.20;99.90;;;;;;5059257;28;20225;-67
2021/12/26 05:36:11;;;;;;;7.97;5.72;;;5.20;99.90;;;;;;5026316;28;20813;-67
2021/12/26 05:38:41;;;;;;;4.90;4.40;;;5.20;99.90;;;;;;5044954;28;20223;-68
2021/12/26 05:41:11;;;;;;;6.03;5.28;;;5.20;99.90;;;;;;5046245;28;20256;-67
2021/12/26 05:43:53;;;;;;;7.22;6.45;;;5.20;99.90;;;;;;5028164;28;20262;-66
2021/12/26 05:46:21;;;;;;;7.35;4.65;;;5.20;99.90;;;;;;5033353;28;20307;-66
2021/12/26 05:48:51;;;;;;;6.50;5.47;;;5.20;99.90;;;;;;5063274;28;20313;-67
2021/12/26 05:51:34;;;;;;;8.43;6.10;;;5.20;99.90;;;;;;5059411;28;20307;-66
2021/12/26 05:54:27;;;;;;;7.40;5.78;;;5.20;99.90;;;;;;5026704;28;20217;-66
2021/12/26 05:56:56;;;;;;;7.10;5.72;;;5.20;99.90;;;;;;5058604;28;20710;-67
2021/12/26 05:59:24;;;;;;;8.30;6.82;;;5.20;99.90;;;;;;5027295;28;20201;-67
2021/12/26 06:01:52;;;;;;;5.72;5.00;;;5.20;99.90;;;;;;5044102;28;20243;-67
2021/12/26 06:04:23;;;;;;;6.70;5.65;;;5.20;99.90;;;;;;5046056;28;20287;-66
2021/12/26 06:06:51;;;;;;;7.63;6.70;;;5.20;99.90;;;;;;5062806;28;20748;-66
2021/12/26 06:09:24;;;;;;;7.78;6.70;;;5.20;99.90;;;;;;5047149;28;20766;-69
2021/12/26 06:11:52;;;;;;;6.90;5.70;;;5.20;99.90;;;;;;5026089;28;20228;-67
2021/12/26 06:14:21;;;;;;;8.30;6.53;;;5.20;99.90;;;;;;5028172;28;20858;-66
2021/12/26 06:16:49;;;;;;;8.05;5.68;;;5.20;99.90;;;;;;5027439;28;20244;-66
2021/12/26 06:19:37;;;;;;;6.15;5.55;;;5.20;99.90;;;;;;5038626;28;20196;-68
2021/12/26 06:22:23;;;;;;;8.85;6.80;;;5.20;99.90;;;;;;5047485;28;20216;-68
2021/12/26 06:25:11;;;;;;;8.55;6.30;;;5.20;99.90;;;;;;5044987;28;20301;-65
2021/12/26 06:27:48;;;;;;;8.05;6.65;;;5.10;99.90;;;;;;5059753;28;20262;-67
2021/12/26 06:30:34;;;;;;;6.25;5.65;;;5.10;99.90;;;;;;5029407;28;20229;-69
2021/12/26 06:33:21;;;;;;;5.85;4.97;;;5.10;99.90;;;;;;5046991;28;20593;-67
2021/12/26 06:36:10;;;;;;;8.57;6.18;;;5.10;99.90;;;;;;5047135;28;20228;-67
2021/12/26 06:38:57;;;;;;;6.80;6.10;;;5.10;99.90;;;;;;5047101;28;20547;-69
2021/12/26 06:41:43;;;;;;;5.80;5.22;;;5.10;99.90;;;;;;5046646;28;20686;-68
2021/12/26 06:44:46;;;;;;;11.80;7.50;;;5.10;99.90;;;;;;5042006;28;20209;-66
2021/12/26 06:47:25;;;;;;;7.90;6.45;;;5.10;99.90;;;;;;5061634;28;20200;-66
2021/12/26 06:49:54;;;;;;;6.70;6.00;;;5.10;99.90;;;;;;5047216;28;20674;-67
2021/12/26 06:52:23;;;;;;;8.07;7.28;;;5.10;99.90;;;;;;5062726;28;20242;-66
2021/12/26 06:54:51;;;;;;;7.72;6.18;;;5.10;99.90;;;;;;5049162;28;20213;-66
2021/12/26 06:57:19;;;;;;;7.82;6.30;;;5.10;99.90;;;;;;5056810;28;20201;-66
2021/12/26 06:59:48;;;;;;;5.50;4.45;;;5.10;99.90;;;;;;5031039;28;20205;-67
2021/12/26 07:02:16;;;;;;;8.27;6.60;;;5.10;99.90;;;;;;5058179;28;20189;-68
2021/12/26 07:05:04;;;;;;;6.57;5.97;;;5.10;99.90;;;;;;5032852;28;20224;-66
2021/12/26 07:07:47;;;;;;;6.25;5.25;;;5.10;99.90;;;;;;5047867;28;20195;-66
2021/12/26 07:10:17;;;;;;;7.43;5.65;;;5.10;99.90;;;;;;5041787;28;20223;-68
2021/12/26 07:12:45;;;;;;;6.40;5.35;;;5.10;99.90;;;;;;5050573;28;20208;-67
2021/12/26 07:15:22;;;;;;;7.85;6.32;;;5.10;99.90;;;;;;5058304;28;20304;-67
2021/12/26 07:17:58;;;;;;;7.53;6.78;;;5.10;99.90;;;;;;5029498;28;20208;-67
2021/12/26 07:20:28;;;;;;;9.35;7.32;;;5.10;99.90;;;;;;5057037;28;20220;-68
2021/12/26 07:23:17;;;;;;;7.82;7.03;;;5.10;99.90;;;;;;5039788;28;20213;-67
2021/12/26 07:25:48;;;;;;;7.18;6.45;;;5.10;99.90;;;;;;5061498;28;20985;-67
2021/12/26 07:28:18;;;;;;;8.13;6.65;;;5.10;99.90;;;;;;5042555;28;20203;-67
2021/12/26 07:31:06;;;;;;;8.02;5.90;;;5.10;99.90;;;;;;5034913;28;20702;-67
2021/12/26 07:33:36;;;;;;;8.35;7.07;;;5.10;99.90;;;;;;5029319;28;20225;-67
2021/12/26 07:36:06;;;;;;;9.93;7.13;;;5.10;99.90;;;;;;5028280;28;20224;-66
2021/12/26 07:38:43;;;;;;;8.30;6.55;;;5.10;99.90;;;;;;5038952;28;20201;-65
2021/12/26 07:41:26;;;;;;;7.55;5.80;;;5.10;99.90;;;;;;5063153;28;20220;-67
2021/12/26 07:43:54;;;;;;;6.50;5.78;;;5.10;99.90;;;;;;5048411;28;20682;-66
2021/12/26 07:46:40;;;;;;;7.05;5.63;;;5.10;99.90;;;;;;5046202;28;20248;-66
2021/12/26 07:49:27;;;;;;;9.60;7.40;;;5.10;99.90;;;;;;5045903;28;20196;-66
2021/12/26 07:52:17;;;;;;;8.40;6.75;;;5.00;99.90;;;;;;5049653;28;20271;-66
2021/12/26 07:55:10;;;;;;;6.95;5.53;;;5.10;99.90;;;;;;5029579;28;20221;-67
2021/12/26 07:57:56;;;;;;;9.20;6.85;;;5.10;99.90;;;;;;5034727;28;20215;-67
2021/12/26 08:00:43;;;;;;;7.53;6.60;;;5.00;99.90;;;;;;5040167;28;20347;-68
2021/12/26 08:03:26;;;;;;;8.35;6.50;;;5.00;99.90;;;;;;5066183;28;20901;-66
2021/12/26 08:06:33;;;;;;;7.30;6.45;;;5.00;99.90;;;;;;5031253;28;20264;-66
2021/12/26 08:09:01;;;;;;;8.85;6.63;;;5.00;99.90;;;;;;5039487;28;20554;-66
2021/12/26 08:11:31;;;;;;;7.80;6.80;;;5.00;99.90;;;;;;5047308;28;20876;-67
2021/12/26 08:14:00;;;;;;;9.60;7.13;;;5.00;99.90;;;;;;5063114;28;20216;-65
2021/12/26 08:16:28;;;;;;;9.23;6.85;;;5.00;99.90;;;;;;5034503;28;20709;-66
2021/12/26 08:18:57;;;;;;;7.20;5.45;;;5.00;99.90;;;;;;5038886;28;20266;-66
2021/12/26 08:21:25;;;;;;;9.05;6.32;;;5.00;99.90;;;;;;5048351;28;20230;-67
2021/12/26 08:23:53;;;;;;;9.82;6.75;;;5.00;99.90;;;;;;5048626;28;20270;-67
2021/12/26 08:26:21;;;;;;;8.68;6.65;;;5.00;99.90;;;;;;5046207;28;20938;-66
2021/12/26 08:28:51;;;;;;;7.10;6.40;;;5.00;99.90;;;;;;5041611;28;20270;-67
2021/12/26 08:31:21;;;;;;;10.20;7.30;;;5.00;99.90;;;;;;5048066;28;20220;-67
2021/12/26 08:33:49;;;;;;;10.73;7.75;;;5.00;99.90;;;;;;5047905;28;20243;-66
2021/12/26 08:36:19;;;;;;;7.88;6.45;;;5.00;99.90;;;;;;5062163;28;20221;-69
2021/12/26 08:38:49;;;;;;;7.38;5.95;;;5.00;99.90;;;;;;5043312;28;20203;-68
2021/12/26 08:41:17;;;;;;;7.55;5.75;;;5.00;99.90;;;;;;5047357;28;20577;-67
2021/12/26 08:43:45;;;;;;;10.18;7.38;;;5.00;99.90;;;;;;5047231;28;20888;-67
2021/12/26 08:46:14;;;;;;;8.50;6.95;;;5.00;99.90;;;;;;5045958;28;20216;-68
2021/12/26 08:48:56;;;;;;;;;;;;;;;;;;;;;
2021/12/26 08:51:31;;;;;;;9.73;7.38;;;5.00;99.90;;;;;;5037104;28;20618;-66
2021/12/26 08:54:09;;;;;;;7.10;6.40;;;5.00;99.90;;;;;;5033666;28;20223;-66
2021/12/26 08:56:40;;;;;;;11.27;7.53;;;5.00;99.90;;;;;;5030339;28;20596;-66
2021/12/26 08:59:11;;;;;;;7.68;5.88;;;5.00;99.90;;;;;;5046133;28;20192;-66
2021/12/26 09:01:46;;;;;;;8.15;6.35;;;5.00;99.90;;;;;;5044247;28;20231;-66
2021/12/26 09:04:17;;;;;;;7.15;6.13;;;5.00;99.90;;;;;;5051557;28;20231;-66
2021/12/26 09:06:48;;;;;;;8.13;6.63;;;5.00;99.90;;;;;;5052777;28;20294;-66
2021/12/26 09:09:25;;;;;;;10.65;7.65;;;5.00;99.90;;;;;;5056022;28;20216;-65
2021/12/26 09:12:04;;;;;;;9.52;7.18;;;5.00;99.90;;;;;;5066303;28;20271;-65
2021/12/26 09:14:32;;;;;;;9.70;7.25;;;5.00;99.90;;;;;;5050011;28;20572;-66
2021/12/26 09:17:09;;;;;;;8.18;6.30;;;5.00;99.90;;;;;;5052387;28;20255;-66
2021/12/26 09:19:45;;;;;;;9.50;6.72;;;5.00;99.90;;;;;;5041469;28;20672;-67
2021/12/26 09:22:20;;;;;;;9.60;6.60;;;5.00;99.90;;;;;;5044448;28;20204;-67
2021/12/26 09:25:04;;;;;;;8.68;6.63;;;5.00;99.90;;;;;;5034801;28;20216;-66
2021/12/26 09:27:32;;;;;;;8.15;6.80;;;5.00;99.90;;;;;;5028487;28;20649;-66
2021/12/26 09:30:04;;;;;;;7.75;6.22;;;5.00;99.90;;;;;;5015940;28;20208;-65
2021/12/26 09:32:43;;;;;;;10.95;7.45;;;5.00;99.90;;;;;;5028576;28;20699;-65
2021/12/26 09:35:35;;;;;;;8.32;5.55;;;5.00;99.90;;;;;;5026055;28;20217;-66
2021/12/26 09:38:05;;;;;;;6.72;6.07;;;5.00;99.90;;;;;;5035093;28;20204;-67
2021/12/26 09:40:40;;;;;;;9.10;6.10;;;5.00;99.90;;;;;;5044765;28;20278;-66
2021/12/26 09:43:25;;;;;;;7.45;6.05;;;5.00;99.90;;;;;;5043933;28;20299;-66
2021/12/26 09:46:09;;;;;;;11.20;6.90;;;5.00;99.90;;;;;;5017122;28;20298;-67
2021/12/26 09:48:50;;;;;;;7.60;6.10;;;5.00;99.90;;;;;;5028030;28;20301;-66
2021/12/26 09:51:29;;;;;;;6.93;5.90;;;5.00;99.90;;;;;;5034243;28;20226;-71
2021/12/26 09:54:08;;;;;;;11.43;7.30;;;5.00;99.90;;;;;;5045304;28;20227;-72
2021/12/26 09:56:45;;;;;;;9.02;7.35;;;5.00;99.90;;;;;;5036787;28;20652;-71
2021/12/26 09:59:31;;;;;;;9.20;6.60;;;5.00;99.90;;;;;;5027608;28;20840;-72
2021/12/26 10:02:11;;;;;;;11.18;7.90;;;5.00;99.90;;;;;;5057759;28;20702;-72
2021/12/26 10:04:55;;;;;;;6.80;5.82;;;5.00;99.90;;;;;;5060900;28;20699;-71
2021/12/26 10:07:33;;;;;;;9.20;6.40;;;5.00;99.90;;;;;;5042276;28;20284;-72
2021/12/26 10:10:13;;;;;;;12.15;7.07;;;5.00;99.90;;;;;;5051946;28;20294;-72
2021/12/26 10:12:47;;;;;;;8.20;6.35;;;5.00;99.90;;;;;;5048039;28;20577;-72
2021/12/26 10:15:44;;;;;;;9.10;6.45;;;5.00;99.90;;;;;;5061697;28;20744;-72
2021/12/26 10:18:28;;;;;;;8.20;6.65;;;5.00;99.90;;;;;;5032643;28;20208;-66
2021/12/26 10:21:03;;;;;;;8.32;6.90;;;5.00;99.90;;;;;;5036477;28;20223;-67
2021/12/26 10:23:40;;;;;;;10.25;7.03;;;5.00;99.90;;;;;;5050326;28;20216;-67
2021/12/26 10:26:21;;;;;;;8.85;6.97;;;5.00;99.90;;;;;;5043244;28;20216;-66
2021/12/26 10:29:38;;;;;;;10.93;7.43;;;5.00;99.90;;;;;;5042806;28;21799;-67
2021/12/26 10:32:18;;;;;;;12.00;7.63;;;5.00;99.90;;;;;;5022367;28;20220;-67
2021/12/26 10:34:49;;;;;;;7.35;6.35;;;5.00;99.90;;;;;;5047610;28;20214;-67
2021/12/26 10:37:36;;;;;;;6.82;6.18;;;5.00;99.90;;;;;;5031917;28;20184;-67
2021/12/26 10:40:31;;;;;;;8.25;6.13;;;5.00;99.90;;;;;;5045076;28;20223;-67
2021/12/26 10:43:16;;;;;;;8.23;6.70;;;5.00;99.90;;;;;;5030202;28;20212;-67
2021/12/26 10:46:15;;;;;;;8.65;6.88;;;5.00;99.90;;;;;;5049635;28;20689;-66
2021/12/26 10:48:45;;;;;;;8.30;7.22;;;5.00;99.90;;;;;;5069085;28;20667;-65
2021/12/26 10:51:36;;;;;;;6.28;5.47;;;5.00;99.90;;;;;;5059256;28;20219;-66
2021/12/26 10:54:31;;;;;;;8.68;7.07;;;5.00;99.90;;;;;;5060669;28;20339;-66
2021/12/26 10:57:13;;;;;;;6.88;6.18;;;5.00;99.90;;;;;;5044571;28;20232;-66
2021/12/26 10:59:58;;;;;;;11.18;7.60;;;5.00;99.90;;;;;;5033886;28;20193;-67
2021/12/26 11:02:30;;;;;;;9.90;6.45;;;5.00;99.90;;;;;;5052221;28;20279;-66
2021/12/26 11:05:06;;;;;;;8.70;7.00;;;5.00;99.90;;;;;;5049873;28;20224;-67
2021/12/26 11:07:55;;;;;;;6.45;5.57;;;5.00;99.90;;;;;;5031982;28;20563;-67
2021/12/26 11:10:33;;;;;;;7.85;6.07;;;5.00;99.90;;;;;;5025427;28;20283;-67
2021/12/26 11:13:03;;;;;;;9.15;6.97;;;5.00;99.90;;;;;;5046215;28;20201;-67
2021/12/26 11:15:36;;;;;;;7.75;5.63;;;5.00;99.90;;;;;;5038852;28;20216;-67
2021/12/26 11:18:16;;;;;;;8.77;6.60;;;5.00;99.90;;;;;;5049861;28;20223;-67
2021/12/26 11:21:06;;;;;;;7.88;6.32;;;5.00;99.90;;;;;;5046714;28;20208;-66
2021/12/26 11:23:43;;;;;;;7.18;6.43;;;5.00;99.90;;;;;;5048583;28;20239;-66
2021/12/26 11:26:21;;;;;;;7.95;6.30;;;5.00;99.90;;;;;;5048831;28;20224;-67
2021/12/26 11:28:55;;;;;;;8.18;6.60;;;5.00;99.90;;;;;;5044048;28;20193;-66
2021/12/26 11:31:30;;;;;;;6.82;5.82;;;5.00;99.90;;;;;;5029870;28;20225;-67
2021/12/26 11:34:08;;;;;;;6.45;5.85;;;5.00;99.90;;;;;;5059368;28;20266;-67
2021/12/26 11:36:37;;;;;;;8.30;6.20;;;5.00;99.90;;;;;;5049846;28;20673;-67
2021/12/26 11:39:26;;;;;;;8.05;7.25;;;5.00;99.90;;;;;;5046662;28;20197;-67
2021/12/26 11:42:50;;;;;;;8.82;6.35;;;5.00;99.90;;;;;;5030132;28;20225;-68
2021/12/26 11:45:54;;;;;;;8.75;6.68;;;5.00;99.90;;;;;;5031649;28;20221;-66
2021/12/26 11:49:12;;;;;;;8.15;6.00;;;5.00;99.90;;;;;;5055621;28;20215;-66
2021/12/26 11:52:15;;;;;;;8.50;6.32;;;5.00;99.90;;;;;;5048986;28;20220;-67
2021/12/26 11:55:24;;;;;;;10.18;7.15;;;5.00;99.90;;;;;;5024083;28;20311;-67
2021/12/26 11:58:23;;;;;;;12.30;8.48;;;5.00;99.90;;;;;;5049734;28;20574;-67
2021/12/26 12:01:06;;;;;;;9.25;6.65;;;5.00;99.90;;;;;;5032110;28;20226;-67
2021/12/26 12:03:35;;;;;;;9.55;6.93;;;5.00;99.90;;;;;;5045970;28;20208;-67
2021/12/26 12:06:27;;;;;;;10.15;5.22;;;5.00;99.90;;;;;;5041253;28;20224;-66
2021/12/26 12:09:20;;;;;;;8.07;6.45;;;5.00;99.90;;;;;;5035245;28;20193;-66
2021/12/26 12:12:02;;;;;;;7.78;5.97;;;5.00;99.90;;;;;;5031415;28;20224;-66
2021/12/26 12:14:54;;;;;;;9.40;7.47;;;5.00;99.90;;;;;;5058939;28;20209;-66
2021/12/26 12:17:38;;;;;;;11.10;6.20;;;5.00;99.90;;;;;;5088551;28;20302;-67
2021/12/26 12:20:10;;;;;;;7.57;5.90;;;5.00;99.90;;;;;;5088505;28;20224;-72
2021/12/26 12:26:10;;;;;;;10.02;7.78;;;5.00;99.90;;;;;;5041342;28;20208;-67
2021/12/26 12:28:46;;;;;;;13.43;8.13;;;5.10;99.90;;;;;;5048548;28;20201;-67
2021/12/26 12:31:24;;;;;;;10.30;7.43;;;5.10;99.90;;;;;;5059461;28;20251;-67
2021/12/26 12:34:05;;;;;;;11.23;7.78;;;5.10;99.90;;;;;;5042057;28;20212;-67
2021/12/26 12:36:38;;;;;;;8.88;6.80;;;5.10;99.90;;;;;;5049301;28;20270;-67
2021/12/26 12:39:16;;;;;;;11.27;7.97;;;5.00;99.90;;;;;;5044556;28;20684;-67
2021/12/26 12:41:56;;;;;;;9.15;6.47;;;5.00;99.90;;;;;;5070556;28;20220;-67
2021/12/26 12:44:32;;;;;;;11.35;8.13;;;5.00;99.90;;;;;;5047803;28;20665;-67
2021/12/26 12:47:07;;;;;;;9.05;7.15;;;5.00;99.90;;;;;;5051084;28;20215;-67
2021/12/26 12:49:48;;;;;;;9.88;7.25;;;5.00;99.90;;;;;;5067541;28;20598;-66
2021/12/26 12:52:37;;;;;;;8.52;6.63;;;5.00;99.90;;;;;;5064184;28;20261;-67
2021/12/26 12:55:09;;;;;;;9.05;6.60;;;5.00;99.90;;;;;;5062886;28;20227;-67
2021/12/26 12:57:45;;;;;;;7.60;6.38;;;5.00;99.90;;;;;;5072362;28;20187;-67
2021/12/26 13:00:42;;;;;;;8.20;6.45;;;5.00;99.90;;;;;;5075632;27;20219;-66
2021/12/26 13:03:18;;;;;;;6.90;5.55;;;5.00;99.90;;;;;;5083403;28;20208;-67
2021/12/26 13:05:48;;;;;;;6.05;5.45;;;5.00;99.90;;;;;;5081599;28;20237;-67
2021/12/26 13:08:19;;;;;;;9.50;7.68;;;5.00;99.90;;;;;;5087675;28;20192;-67
2021/12/26 13:10:56;;;;;;;8.63;6.70;;;5.00;99.90;;;;;;5088124;28;20235;-67
2021/12/26 13:13:26;;;;;;;8.20;6.82;;;5.00;99.90;;;;;;5073720;28;20619;-67
2021/12/26 13:15:58;;;;;;;9.68;6.88;;;5.00;99.90;;;;;;5052269;28;20625;-66
2021/12/26 13:18:29;;;;;;;8.65;7.15;;;5.00;99.90;;;;;;5064287;28;20669;-66
2021/12/26 13:21:00;;;;;;;8.13;6.22;;;5.00;99.90;;;;;;5065806;28;20620;-67
2021/12/26 13:23:31;;;;;;;8.75;7.38;;;5.00;99.90;;;;;;5069026;28;20265;-66
2021/12/26 13:26:03;;;;;;;6.97;5.82;;;5.00;99.90;;;;;;5074574;28;20230;-67
2021/12/26 13:28:35;;;;;;;7.47;6.40;;;5.00;99.90;;;;;;5065572;28;20712;-66
2021/12/26 13:31:14;;;;;;;7.40;5.90;;;5.00;99.90;;;;;;5060343;27;20207;-67
2021/12/26 13:33:45;;;;;;;7.95;5.80;;;5.00;99.90;;;;;;5057051;28;20226;-67
2021/12/26 13:36:17;;;;;;;7.60;5.75;;;5.00;99.90;;;;;;5042855;28;20710;-66
2021/12/26 13:38:50;;;;;;;7.18;6.20;;;5.00;99.90;;;;;;5064271;28;20662;-66
2021/12/26 13:41:21;;;;;;;8.50;7.15;;;5.00;99.90;;;;;;5053988;28;20250;-67
2021/12/26 13:43:56;;;;;;;9.52;6.50;;;5.00;99.90;;;;;;5046960;28;20211;-67
2021/12/26 13:46:31;;;;;;;7.53;6.05;;;5.00;99.90;;;;;;5037962;28;20216;-67